sensor_id;sensor_type;location;lat;lon;timestamp;P1;durP1;ratioP1;P2;durP2;ratioP2
78197;SDS011;67472;51.554;7.812;2023-03-23T00:02:13;5.03;;;2.30;;
78197;SDS011;67472;51.554;7.812;2023-03-23T00:04:59;5.68;;;2.78;;
78197;SDS011;67472;51.554;7.812;2023-03-23T00:07:45;5.45;;;2.78;;
78197;SDS011;67472;51.554;7.812;2023-03-23T00:10:30;10.20;;;2.78;;
78197;SDS011;67472;51.554;7.812;2023-03-23T00:13:18;4.95;;;2.20;;
78197;SDS011;67472;51.554;7.812;2023-03-23T00:16:04;3.13;;;2.55;;
78197;SDS011;67472;51.554;7.812;2023-03-23T00:18:50;3.15;;;1.98;;
78197;SDS011;67472;51.554;7.812;2023-03-23T00:21:39;4.63;;;2.40;;
78197;SDS011;67472;51.554;7.812;2023-03-23T00:24:26;5.72;;;2.30;;
78197;SDS011;67472;51.554;7.812;2023-03-23T00:27:11;2.40;;;1.85;;
78197;SDS011;67472;51.554;7.812;2023-03-23T00:30:00;4.07;;;2.40;;
78197;SDS011;67472;51.554;7.812;2023-03-23T00:32:45;4.25;;;2.40;;
78197;SDS011;67472;51.554;7.812;2023-03-23T00:35:30;6.30;;;2.80;;
78197;SDS011;67472;51.554;7.812;2023-03-23T00:38:19;3.35;;;2.70;;
78197;SDS011;67472;51.554;7.812;2023-03-23T00:41:05;8.27;;;2.90;;
78197;SDS011;67472;51.554;7.812;2023-03-23T00:43:50;5.75;;;2.72;;
78197;SDS011;67472;51.554;7.812;2023-03-23T00:46:35;2.97;;;2.10;;
78197;SDS011;67472;51.554;7.812;2023-03-23T00:49:29;2.78;;;2.13;;
78197;SDS011;67472;51.554;7.812;2023-03-23T00:52:14;4.57;;;2.55;;
78197;SDS011;67472;51.554;7.812;2023-03-23T00:54:59;5.18;;;2.85;;
78197;SDS011;67472;51.554;7.812;2023-03-23T00:57:44;5.82;;;2.38;;
78197;SDS011;67472;51.554;7.812;2023-03-23T01:00:29;5.20;;;2.50;;
78197;SDS011;67472;51.554;7.812;2023-03-23T01:03:15;2.75;;;2.10;;
78197;SDS011;67472;51.554;7.812;2023-03-23T01:06:06;6.90;;;3.03;;
78197;SDS011;67472;51.554;7.812;2023-03-23T01:08:57;4.90;;;2.20;;
78197;SDS011;67472;51.554;7.812;2023-03-23T01:11:44;3.72;;;2.75;;
78197;SDS011;67472;51.554;7.812;2023-03-23T01:14:29;5.88;;;2.88;;
78197;SDS011;67472;51.554;7.812;2023-03-23T01:17:14;4.60;;;2.40;;
78197;SDS011;67472;51.554;7.812;2023-03-23T01:19:59;5.47;;;2.60;;
78197;SDS011;67472;51.554;7.812;2023-03-23T01:22:44;5.88;;;2.35;;
78197;SDS011;67472;51.554;7.812;2023-03-23T01:25:30;4.55;;;2.17;;
78197;SDS011;67472;51.554;7.812;2023-03-23T01:28:16;3.80;;;1.70;;
78197;SDS011;67472;51.554;7.812;2023-03-23T01:31:05;3.95;;;2.00;;
78197;SDS011;67472;51.554;7.812;2023-03-23T01:33:53;2.97;;;1.73;;
78197;SDS011;67472;51.554;7.812;2023-03-23T01:36:40;2.88;;;2.00;;
78197;SDS011;67472;51.554;7.812;2023-03-23T01:39:25;4.35;;;2.25;;
78197;SDS011;67472;51.554;7.812;2023-03-23T01:42:10;4.65;;;1.98;;
78197;SDS011;67472;51.554;7.812;2023-03-23T01:48:03;4.60;;;2.25;;
78197;SDS011;67472;51.554;7.812;2023-03-23T01:53:40;5.85;;;2.47;;
78197;SDS011;67472;51.554;7.812;2023-03-23T01:56:30;3.15;;;2.22;;
78197;SDS011;67472;51.554;7.812;2023-03-23T01:59:22;3.42;;;2.40;;
78197;SDS011;67472;51.554;7.812;2023-03-23T02:02:26;4.22;;;2.92;;
78197;SDS011;67472;51.554;7.812;2023-03-23T02:05:14;3.05;;;2.33;;
78197;SDS011;67472;51.554;7.812;2023-03-23T02:08:06;4.35;;;2.30;;
78197;SDS011;67472;51.554;7.812;2023-03-23T02:10:53;5.82;;;2.40;;
78197;SDS011;67472;51.554;7.812;2023-03-23T02:13:38;2.88;;;2.25;;
78197;SDS011;67472;51.554;7.812;2023-03-23T02:22:51;4.85;;;2.40;;
78197;SDS011;67472;51.554;7.812;2023-03-23T02:29:03;2.55;;;2.35;;
78197;SDS011;67472;51.554;7.812;2023-03-23T02:34:59;3.78;;;2.83;;
78197;SDS011;67472;51.554;7.812;2023-03-23T02:37:53;4.15;;;2.40;;
78197;SDS011;67472;51.554;7.812;2023-03-23T02:40:46;2.50;;;1.75;;
78197;SDS011;67472;51.554;7.812;2023-03-23T02:43:34;3.65;;;2.00;;
78197;SDS011;67472;51.554;7.812;2023-03-23T02:46:25;2.20;;;2.00;;
78197;SDS011;67472;51.554;7.812;2023-03-23T02:49:11;2.47;;;2.28;;
78197;SDS011;67472;51.554;7.812;2023-03-23T02:52:01;2.75;;;2.00;;
78197;SDS011;67472;51.554;7.812;2023-03-23T02:54:51;4.20;;;2.33;;
78197;SDS011;67472;51.554;7.812;2023-03-23T02:57:38;2.53;;;2.10;;
78197;SDS011;67472;51.554;7.812;2023-03-23T03:00:23;2.17;;;1.95;;
78197;SDS011;67472;51.554;7.812;2023-03-23T03:03:13;3.05;;;2.40;;
78197;SDS011;67472;51.554;7.812;2023-03-23T03:06:10;2.85;;;1.92;;
78197;SDS011;67472;51.554;7.812;2023-03-23T03:09:09;2.42;;;2.10;;
78197;SDS011;67472;51.554;7.812;2023-03-23T03:12:12;3.63;;;2.20;;
78197;SDS011;67472;51.554;7.812;2023-03-23T03:15:07;2.13;;;1.85;;
78197;SDS011;67472;51.554;7.812;2023-03-23T03:17:59;2.97;;;2.00;;
78197;SDS011;67472;51.554;7.812;2023-03-23T03:20:52;3.40;;;2.35;;
78197;SDS011;67472;51.554;7.812;2023-03-23T03:23:43;2.67;;;2.00;;
78197;SDS011;67472;51.554;7.812;2023-03-23T03:26:30;2.33;;;2.13;;
78197;SDS011;67472;51.554;7.812;2023-03-23T03:29:36;2.50;;;1.85;;
78197;SDS011;67472;51.554;7.812;2023-03-23T03:32:36;1.63;;;1.52;;
78197;SDS011;67472;51.554;7.812;2023-03-23T03:35:25;2.22;;;2.03;;
78197;SDS011;67472;51.554;7.812;2023-03-23T03:38:11;2.60;;;1.92;;
78197;SDS011;67472;51.554;7.812;2023-03-23T03:40:56;3.38;;;1.77;;
78197;SDS011;67472;51.554;7.812;2023-03-23T03:43:42;1.67;;;1.58;;
78197;SDS011;67472;51.554;7.812;2023-03-23T03:46:27;3.53;;;1.77;;
78197;SDS011;67472;51.554;7.812;2023-03-23T03:49:15;2.55;;;2.25;;
78197;SDS011;67472;51.554;7.812;2023-03-23T03:52:00;1.90;;;1.80;;
78197;SDS011;67472;51.554;7.812;2023-03-23T03:54:54;2.42;;;1.55;;
78197;SDS011;67472;51.554;7.812;2023-03-23T03:57:40;1.90;;;1.77;;
78197;SDS011;67472;51.554;7.812;2023-03-23T04:00:52;1.75;;;1.60;;
78197;SDS011;67472;51.554;7.812;2023-03-23T04:03:40;2.45;;;2.10;;
78197;SDS011;67472;51.554;7.812;2023-03-23T04:06:44;2.28;;;2.08;;
78197;SDS011;67472;51.554;7.812;2023-03-23T04:09:29;2.60;;;1.40;;
78197;SDS011;67472;51.554;7.812;2023-03-23T04:12:16;3.90;;;1.83;;
78197;SDS011;67472;51.554;7.812;2023-03-23T04:15:16;2.08;;;1.50;;
78197;SDS011;67472;51.554;7.812;2023-03-23T04:18:01;3.53;;;1.60;;
78197;SDS011;67472;51.554;7.812;2023-03-23T04:20:48;3.85;;;1.85;;
78197;SDS011;67472;51.554;7.812;2023-03-23T04:23:36;2.15;;;1.50;;
78197;SDS011;67472;51.554;7.812;2023-03-23T04:26:25;2.97;;;2.00;;
78197;SDS011;67472;51.554;7.812;2023-03-23T04:29:15;1.73;;;1.60;;
78197;SDS011;67472;51.554;7.812;2023-03-23T04:32:18;3.53;;;1.55;;
78197;SDS011;67472;51.554;7.812;2023-03-23T04:35:09;3.00;;;1.80;;
78197;SDS011;67472;51.554;7.812;2023-03-23T04:38:00;3.65;;;2.05;;
78197;SDS011;67472;51.554;7.812;2023-03-23T04:40:45;3.22;;;1.73;;
78197;SDS011;67472;51.554;7.812;2023-03-23T04:43:50;2.42;;;1.60;;
78197;SDS011;67472;51.554;7.812;2023-03-23T04:47:00;2.65;;;1.70;;
78197;SDS011;67472;51.554;7.812;2023-03-23T04:49:48;4.45;;;1.50;;
78197;SDS011;67472;51.554;7.812;2023-03-23T04:52:55;1.60;;;1.50;;
78197;SDS011;67472;51.554;7.812;2023-03-23T04:55:41;2.53;;;1.60;;
78197;SDS011;67472;51.554;7.812;2023-03-23T04:58:30;3.28;;;1.65;;
78197;SDS011;67472;51.554;7.812;2023-03-23T05:01:38;1.45;;;1.35;;
78197;SDS011;67472;51.554;7.812;2023-03-23T05:04:34;2.25;;;1.48;;
78197;SDS011;67472;51.554;7.812;2023-03-23T05:07:32;2.25;;;1.77;;
78197;SDS011;67472;51.554;7.812;2023-03-23T05:10:18;2.58;;;1.73;;
78197;SDS011;67472;51.554;7.812;2023-03-23T05:13:04;1.63;;;1.42;;
78197;SDS011;67472;51.554;7.812;2023-03-23T05:15:49;3.22;;;1.67;;
78197;SDS011;67472;51.554;7.812;2023-03-23T05:18:35;1.77;;;1.55;;
78197;SDS011;67472;51.554;7.812;2023-03-23T05:21:24;4.43;;;1.60;;
78197;SDS011;67472;51.554;7.812;2023-03-23T05:24:12;1.52;;;1.42;;
78197;SDS011;67472;51.554;7.812;2023-03-23T05:27:01;2.45;;;1.98;;
78197;SDS011;67472;51.554;7.812;2023-03-23T05:29:51;2.40;;;1.65;;
78197;SDS011;67472;51.554;7.812;2023-03-23T05:32:39;4.93;;;1.70;;
78197;SDS011;67472;51.554;7.812;2023-03-23T05:35:40;1.42;;;1.33;;
78197;SDS011;67472;51.554;7.812;2023-03-23T05:38:25;3.67;;;2.05;;
78197;SDS011;67472;51.554;7.812;2023-03-23T05:41:11;2.90;;;1.50;;
78197;SDS011;67472;51.554;7.812;2023-03-23T05:43:59;2.38;;;1.90;;
78197;SDS011;67472;51.554;7.812;2023-03-23T05:46:52;2.65;;;1.80;;
78197;SDS011;67472;51.554;7.812;2023-03-23T05:49:36;2.50;;;1.52;;
78197;SDS011;67472;51.554;7.812;2023-03-23T05:52:24;2.95;;;1.90;;
78197;SDS011;67472;51.554;7.812;2023-03-23T05:55:11;2.67;;;1.63;;
78197;SDS011;67472;51.554;7.812;2023-03-23T05:57:58;2.35;;;1.85;;
78197;SDS011;67472;51.554;7.812;2023-03-23T06:00:51;1.73;;;1.63;;
78197;SDS011;67472;51.554;7.812;2023-03-23T06:03:42;2.00;;;1.70;;
78197;SDS011;67472;51.554;7.812;2023-03-23T06:06:39;2.65;;;1.80;;
78197;SDS011;67472;51.554;7.812;2023-03-23T06:09:28;4.18;;;1.65;;
78197;SDS011;67472;51.554;7.812;2023-03-23T06:12:40;2.15;;;1.88;;
78197;SDS011;67472;51.554;7.812;2023-03-23T06:15:27;2.47;;;1.95;;
78197;SDS011;67472;51.554;7.812;2023-03-23T06:18:18;2.45;;;1.90;;
78197;SDS011;67472;51.554;7.812;2023-03-23T06:21:23;2.20;;;1.90;;
78197;SDS011;67472;51.554;7.812;2023-03-23T06:24:14;3.83;;;2.10;;
78197;SDS011;67472;51.554;7.812;2023-03-23T06:26:59;5.82;;;2.20;;
78197;SDS011;67472;51.554;7.812;2023-03-23T06:29:45;2.28;;;1.70;;
78197;SDS011;67472;51.554;7.812;2023-03-23T06:32:31;2.85;;;2.33;;
78197;SDS011;67472;51.554;7.812;2023-03-23T06:35:18;2.80;;;2.15;;
78197;SDS011;67472;51.554;7.812;2023-03-23T06:38:31;2.42;;;2.15;;
78197;SDS011;67472;51.554;7.812;2023-03-23T06:41:16;4.53;;;2.30;;
78197;SDS011;67472;51.554;7.812;2023-03-23T06:44:01;3.83;;;2.15;;
78197;SDS011;67472;51.554;7.812;2023-03-23T06:46:49;1.63;;;1.52;;
78197;SDS011;67472;51.554;7.812;2023-03-23T06:49:38;4.88;;;2.40;;
78197;SDS011;67472;51.554;7.812;2023-03-23T06:52:32;3.40;;;2.10;;
78197;SDS011;67472;51.554;7.812;2023-03-23T06:55:17;3.20;;;2.30;;
78197;SDS011;67472;51.554;7.812;2023-03-23T06:58:02;3.92;;;2.08;;
78197;SDS011;67472;51.554;7.812;2023-03-23T07:00:48;5.32;;;2.08;;
78197;SDS011;67472;51.554;7.812;2023-03-23T07:03:37;3.33;;;2.35;;
78197;SDS011;67472;51.554;7.812;2023-03-23T07:06:23;2.63;;;2.30;;
78197;SDS011;67472;51.554;7.812;2023-03-23T07:09:14;2.45;;;1.58;;
78197;SDS011;67472;51.554;7.812;2023-03-23T07:11:59;5.88;;;2.00;;
78197;SDS011;67472;51.554;7.812;2023-03-23T07:14:52;3.47;;;1.95;;
78197;SDS011;67472;51.554;7.812;2023-03-23T07:17:37;2.38;;;1.77;;
78197;SDS011;67472;51.554;7.812;2023-03-23T07:20:46;3.40;;;2.08;;
78197;SDS011;67472;51.554;7.812;2023-03-23T07:23:33;5.32;;;1.70;;
78197;SDS011;67472;51.554;7.812;2023-03-23T07:26:23;2.97;;;1.75;;
78197;SDS011;67472;51.554;7.812;2023-03-23T07:29:12;38.33;;;6.93;;
78197;SDS011;67472;51.554;7.812;2023-03-23T07:32:01;6.85;;;2.88;;
78197;SDS011;67472;51.554;7.812;2023-03-23T07:34:46;6.40;;;2.55;;
78197;SDS011;67472;51.554;7.812;2023-03-23T07:37:42;3.38;;;2.05;;
78197;SDS011;67472;51.554;7.812;2023-03-23T07:40:27;5.63;;;2.08;;
78197;SDS011;67472;51.554;7.812;2023-03-23T07:43:18;3.22;;;1.77;;
78197;SDS011;67472;51.554;7.812;2023-03-23T07:46:38;3.88;;;1.88;;
78197;SDS011;67472;51.554;7.812;2023-03-23T07:49:32;2.72;;;2.00;;
78197;SDS011;67472;51.554;7.812;2023-03-23T07:52:36;4.82;;;2.28;;
78197;SDS011;67472;51.554;7.812;2023-03-23T07:55:23;5.15;;;2.13;;
78197;SDS011;67472;51.554;7.812;2023-03-23T07:58:29;6.13;;;2.10;;
78197;SDS011;67472;51.554;7.812;2023-03-23T08:01:14;3.40;;;2.05;;
78197;SDS011;67472;51.554;7.812;2023-03-23T08:04:05;5.78;;;2.08;;
78197;SDS011;67472;51.554;7.812;2023-03-23T08:07:04;4.82;;;1.58;;
78197;SDS011;67472;51.554;7.812;2023-03-23T08:09:58;3.83;;;2.08;;
78197;SDS011;67472;51.554;7.812;2023-03-23T08:13:13;3.53;;;1.70;;
78197;SDS011;67472;51.554;7.812;2023-03-23T08:16:08;3.35;;;2.03;;
78197;SDS011;67472;51.554;7.812;2023-03-23T08:19:24;4.85;;;1.90;;
78197;SDS011;67472;51.554;7.812;2023-03-23T08:22:29;2.67;;;1.45;;
78197;SDS011;67472;51.554;7.812;2023-03-23T08:25:41;1.63;;;1.50;;
78197;SDS011;67472;51.554;7.812;2023-03-23T08:28:51;3.53;;;1.63;;
78197;SDS011;67472;51.554;7.812;2023-03-23T08:31:42;1.90;;;1.40;;
78197;SDS011;67472;51.554;7.812;2023-03-23T08:34:52;2.88;;;1.80;;
78197;SDS011;67472;51.554;7.812;2023-03-23T08:37:56;2.33;;;1.58;;
78197;SDS011;67472;51.554;7.812;2023-03-23T08:41:00;5.53;;;1.90;;
78197;SDS011;67472;51.554;7.812;2023-03-23T08:43:48;3.85;;;1.30;;
78197;SDS011;67472;51.554;7.812;2023-03-23T08:46:52;1.95;;;1.65;;
78197;SDS011;67472;51.554;7.812;2023-03-23T08:50:12;4.25;;;1.67;;
78197;SDS011;67472;51.554;7.812;2023-03-23T08:53:36;3.70;;;1.75;;
78197;SDS011;67472;51.554;7.812;2023-03-23T08:56:40;4.10;;;1.60;;
78197;SDS011;67472;51.554;7.812;2023-03-23T08:59:50;5.18;;;1.88;;
78197;SDS011;67472;51.554;7.812;2023-03-23T09:03:10;2.65;;;1.50;;
78197;SDS011;67472;51.554;7.812;2023-03-23T09:06:14;8.38;;;2.10;;
78197;SDS011;67472;51.554;7.812;2023-03-23T09:09:03;2.92;;;1.48;;
78197;SDS011;67472;51.554;7.812;2023-03-23T09:11:53;3.63;;;1.77;;
78197;SDS011;67472;51.554;7.812;2023-03-23T09:14:38;3.13;;;1.60;;
78197;SDS011;67472;51.554;7.812;2023-03-23T09:17:23;4.22;;;1.88;;
78197;SDS011;67472;51.554;7.812;2023-03-23T09:20:09;2.88;;;1.83;;
78197;SDS011;67472;51.554;7.812;2023-03-23T09:22:57;3.70;;;1.58;;
78197;SDS011;67472;51.554;7.812;2023-03-23T09:25:42;5.18;;;1.75;;
78197;SDS011;67472;51.554;7.812;2023-03-23T09:28:28;3.22;;;1.90;;
78197;SDS011;67472;51.554;7.812;2023-03-23T09:31:13;2.20;;;1.83;;
78197;SDS011;67472;51.554;7.812;2023-03-23T09:33:58;5.82;;;1.70;;
78197;SDS011;67472;51.554;7.812;2023-03-23T09:36:45;4.55;;;1.80;;
78197;SDS011;67472;51.554;7.812;2023-03-23T09:39:31;6.38;;;2.70;;
78197;SDS011;67472;51.554;7.812;2023-03-23T09:45:29;6.68;;;1.88;;
78197;SDS011;67472;51.554;7.812;2023-03-23T09:51:53;7.40;;;2.10;;
78197;SDS011;67472;51.554;7.812;2023-03-23T09:54:43;2.83;;;1.88;;
78197;SDS011;67472;51.554;7.812;2023-03-23T09:57:37;8.55;;;2.10;;
78197;SDS011;67472;51.554;7.812;2023-03-23T10:00:36;5.28;;;2.10;;
78197;SDS011;67472;51.554;7.812;2023-03-23T10:03:30;5.85;;;2.35;;
78197;SDS011;67472;51.554;7.812;2023-03-23T10:06:20;12.13;;;2.25;;
78197;SDS011;67472;51.554;7.812;2023-03-23T10:09:08;5.78;;;1.60;;
78197;SDS011;67472;51.554;7.812;2023-03-23T10:18:01;4.43;;;2.05;;
78197;SDS011;67472;51.554;7.812;2023-03-23T10:20:52;5.05;;;1.92;;
78197;SDS011;67472;51.554;7.812;2023-03-23T10:23:45;6.78;;;2.45;;
78197;SDS011;67472;51.554;7.812;2023-03-23T10:29:43;8.73;;;2.00;;
78197;SDS011;67472;51.554;7.812;2023-03-23T10:35:38;3.67;;;1.73;;
78197;SDS011;67472;51.554;7.812;2023-03-23T10:38:38;6.18;;;1.70;;
78197;SDS011;67472;51.554;7.812;2023-03-23T10:41:27;4.75;;;2.03;;
78197;SDS011;67472;51.554;7.812;2023-03-23T10:44:17;4.95;;;1.77;;
78197;SDS011;67472;51.554;7.812;2023-03-23T10:47:07;6.13;;;2.65;;
78197;SDS011;67472;51.554;7.812;2023-03-23T10:49:54;6.78;;;3.17;;
78197;SDS011;67472;51.554;7.812;2023-03-23T10:52:45;6.15;;;2.85;;
78197;SDS011;67472;51.554;7.812;2023-03-23T10:55:35;5.35;;;2.00;;
78197;SDS011;67472;51.554;7.812;2023-03-23T10:58:25;6.90;;;2.80;;
78197;SDS011;67472;51.554;7.812;2023-03-23T11:01:17;10.90;;;4.93;;
78197;SDS011;67472;51.554;7.812;2023-03-23T11:04:10;7.15;;;3.30;;
78197;SDS011;67472;51.554;7.812;2023-03-23T11:06:58;13.50;;;4.25;;
78197;SDS011;67472;51.554;7.812;2023-03-23T11:09:55;20.88;;;6.55;;
78197;SDS011;67472;51.554;7.812;2023-03-23T11:12:44;15.80;;;6.78;;
78197;SDS011;67472;51.554;7.812;2023-03-23T11:15:38;11.32;;;3.42;;
78197;SDS011;67472;51.554;7.812;2023-03-23T11:18:43;11.07;;;3.67;;
78197;SDS011;67472;51.554;7.812;2023-03-23T11:21:28;9.23;;;3.15;;
78197;SDS011;67472;51.554;7.812;2023-03-23T11:24:13;12.65;;;4.03;;
78197;SDS011;67472;51.554;7.812;2023-03-23T11:26:59;7.15;;;3.20;;
78197;SDS011;67472;51.554;7.812;2023-03-23T11:29:55;6.35;;;2.40;;
78197;SDS011;67472;51.554;7.812;2023-03-23T11:32:44;7.07;;;2.65;;
78197;SDS011;67472;51.554;7.812;2023-03-23T11:35:30;5.47;;;1.60;;
78197;SDS011;67472;51.554;7.812;2023-03-23T11:38:19;3.10;;;1.58;;
78197;SDS011;67472;51.554;7.812;2023-03-23T11:41:11;3.67;;;1.95;;
78197;SDS011;67472;51.554;7.812;2023-03-23T11:43:56;5.70;;;2.08;;
78197;SDS011;67472;51.554;7.812;2023-03-23T11:46:44;1.77;;;1.30;;
78197;SDS011;67472;51.554;7.812;2023-03-23T11:49:47;3.70;;;1.80;;
78197;SDS011;67472;51.554;7.812;2023-03-23T11:52:57;5.47;;;1.88;;
78197;SDS011;67472;51.554;7.812;2023-03-23T11:59:33;5.13;;;1.70;;
78197;SDS011;67472;51.554;7.812;2023-03-23T12:05:30;5.03;;;1.88;;
78197;SDS011;67472;51.554;7.812;2023-03-23T12:08:25;2.60;;;1.98;;
78197;SDS011;67472;51.554;7.812;2023-03-23T12:23:11;5.10;;;2.90;;
78197;SDS011;67472;51.554;7.812;2023-03-23T12:26:16;5.05;;;3.05;;
78197;SDS011;67472;51.554;7.812;2023-03-23T12:29:22;4.22;;;3.35;;
78197;SDS011;67472;51.554;7.812;2023-03-23T12:38:07;8.93;;;4.95;;
78197;SDS011;67472;51.554;7.812;2023-03-23T12:41:01;5.95;;;4.90;;
78197;SDS011;67472;51.554;7.812;2023-03-23T12:43:52;5.28;;;4.78;;
78197;SDS011;67472;51.554;7.812;2023-03-23T12:50:00;8.60;;;5.45;;
78197;SDS011;67472;51.554;7.812;2023-03-23T12:52:55;8.18;;;6.07;;
78197;SDS011;67472;51.554;7.812;2023-03-23T12:55:46;7.32;;;6.53;;
78197;SDS011;67472;51.554;7.812;2023-03-23T12:58:42;8.93;;;6.97;;
78197;SDS011;67472;51.554;7.812;2023-03-23T13:01:32;6.78;;;6.15;;
78197;SDS011;67472;51.554;7.812;2023-03-23T13:04:22;6.97;;;6.05;;
78197;SDS011;67472;51.554;7.812;2023-03-23T13:07:17;9.55;;;6.30;;
78197;SDS011;67472;51.554;7.812;2023-03-23T13:10:19;8.68;;;5.55;;
78197;SDS011;67472;51.554;7.812;2023-03-23T13:13:10;6.07;;;4.90;;
78197;SDS011;67472;51.554;7.812;2023-03-23T13:16:15;4.63;;;4.13;;
78197;SDS011;67472;51.554;7.812;2023-03-23T13:19:17;4.10;;;3.70;;
78197;SDS011;67472;51.554;7.812;2023-03-23T13:22:17;4.90;;;4.32;;
78197;SDS011;67472;51.554;7.812;2023-03-23T13:25:07;4.35;;;3.83;;
78197;SDS011;67472;51.554;7.812;2023-03-23T13:28:04;4.93;;;4.32;;
78197;SDS011;67472;51.554;7.812;2023-03-23T13:30:55;7.32;;;5.82;;
78197;SDS011;67472;51.554;7.812;2023-03-23T13:33:46;5.22;;;4.20;;
78197;SDS011;67472;51.554;7.812;2023-03-23T13:36:38;7.43;;;4.43;;
78197;SDS011;67472;51.554;7.812;2023-03-23T13:44:57;5.32;;;3.40;;
78197;SDS011;67472;51.554;7.812;2023-03-23T13:48:02;5.32;;;3.42;;
78197;SDS011;67472;51.554;7.812;2023-03-23T13:53:44;4.18;;;3.00;;
78197;SDS011;67472;51.554;7.812;2023-03-23T13:59:47;5.53;;;2.63;;
78197;SDS011;67472;51.554;7.812;2023-03-23T14:02:40;3.35;;;3.05;;
78197;SDS011;67472;51.554;7.812;2023-03-23T14:11:22;2.53;;;2.30;;
78197;SDS011;67472;51.554;7.812;2023-03-23T14:14:14;3.78;;;2.40;;
78197;SDS011;67472;51.554;7.812;2023-03-23T14:17:17;6.78;;;2.97;;
78197;SDS011;67472;51.554;7.812;2023-03-23T14:20:06;3.47;;;3.08;;
78197;SDS011;67472;51.554;7.812;2023-03-23T14:22:57;4.10;;;3.13;;
78197;SDS011;67472;51.554;7.812;2023-03-23T14:25:42;4.35;;;2.67;;
78197;SDS011;67472;51.554;7.812;2023-03-23T14:28:28;5.40;;;3.67;;
78197;SDS011;67472;51.554;7.812;2023-03-23T14:31:20;6.55;;;4.15;;
78197;SDS011;67472;51.554;7.812;2023-03-23T14:34:16;5.15;;;4.30;;
78197;SDS011;67472;51.554;7.812;2023-03-23T14:37:05;6.63;;;5.32;;
78197;SDS011;67472;51.554;7.812;2023-03-23T14:39:56;8.70;;;5.85;;
78197;SDS011;67472;51.554;7.812;2023-03-23T14:42:43;8.55;;;6.20;;
78197;SDS011;67472;51.554;7.812;2023-03-23T14:45:29;9.00;;;6.72;;
78197;SDS011;67472;51.554;7.812;2023-03-23T14:48:16;8.52;;;7.20;;
78197;SDS011;67472;51.554;7.812;2023-03-23T14:51:02;10.32;;;7.80;;
78197;SDS011;67472;51.554;7.812;2023-03-23T14:53:49;9.40;;;6.80;;
78197;SDS011;67472;51.554;7.812;2023-03-23T14:56:37;11.73;;;8.68;;
78197;SDS011;67472;51.554;7.812;2023-03-23T14:59:24;8.93;;;7.57;;
78197;SDS011;67472;51.554;7.812;2023-03-23T15:02:31;11.93;;;8.70;;
78197;SDS011;67472;51.554;7.812;2023-03-23T15:05:30;11.73;;;7.65;;
78197;SDS011;67472;51.554;7.812;2023-03-23T15:08:23;9.85;;;7.85;;
78197;SDS011;67472;51.554;7.812;2023-03-23T15:14:02;10.70;;;7.38;;
78197;SDS011;67472;51.554;7.812;2023-03-23T15:16:53;9.27;;;6.22;;
78197;SDS011;67472;51.554;7.812;2023-03-23T15:19:42;8.70;;;5.40;;
78197;SDS011;67472;51.554;7.812;2023-03-23T15:22:28;6.70;;;4.97;;
78197;SDS011;67472;51.554;7.812;2023-03-23T15:25:19;8.82;;;4.75;;
78197;SDS011;67472;51.554;7.812;2023-03-23T15:28:18;8.95;;;4.57;;
78197;SDS011;67472;51.554;7.812;2023-03-23T15:31:06;6.13;;;4.28;;
78197;SDS011;67472;51.554;7.812;2023-03-23T15:33:54;8.02;;;3.67;;
78197;SDS011;67472;51.554;7.812;2023-03-23T15:36:41;5.15;;;3.40;;
78197;SDS011;67472;51.554;7.812;2023-03-23T15:39:28;3.78;;;2.83;;
78197;SDS011;67472;51.554;7.812;2023-03-23T15:42:22;6.35;;;3.00;;
78197;SDS011;67472;51.554;7.812;2023-03-23T15:47:57;5.13;;;2.85;;
78197;SDS011;67472;51.554;7.812;2023-03-23T15:50:49;6.68;;;2.95;;
78197;SDS011;67472;51.554;7.812;2023-03-23T15:53:36;7.25;;;3.35;;
78197;SDS011;67472;51.554;7.812;2023-03-23T15:56:22;6.95;;;2.45;;
78197;SDS011;67472;51.554;7.812;2023-03-23T15:59:09;10.60;;;2.88;;
78197;SDS011;67472;51.554;7.812;2023-03-23T16:01:55;7.28;;;2.45;;
78197;SDS011;67472;51.554;7.812;2023-03-23T16:04:41;8.23;;;2.55;;
78197;SDS011;67472;51.554;7.812;2023-03-23T16:07:26;3.60;;;2.00;;
78197;SDS011;67472;51.554;7.812;2023-03-23T16:10:15;5.95;;;2.38;;
78197;SDS011;67472;51.554;7.812;2023-03-23T16:13:01;3.63;;;1.80;;
78197;SDS011;67472;51.554;7.812;2023-03-23T16:15:49;5.40;;;1.80;;
78197;SDS011;67472;51.554;7.812;2023-03-23T16:18:34;3.42;;;1.70;;
78197;SDS011;67472;51.554;7.812;2023-03-23T16:21:19;8.57;;;2.35;;
78197;SDS011;67472;51.554;7.812;2023-03-23T16:24:06;3.40;;;2.00;;
78197;SDS011;67472;51.554;7.812;2023-03-23T16:26:52;2.75;;;1.88;;
78197;SDS011;67472;51.554;7.812;2023-03-23T16:29:37;5.38;;;1.70;;
78197;SDS011;67472;51.554;7.812;2023-03-23T16:32:22;2.10;;;1.55;;
78197;SDS011;67472;51.554;7.812;2023-03-23T16:35:07;7.10;;;2.10;;
78197;SDS011;67472;51.554;7.812;2023-03-23T16:37:54;6.20;;;1.98;;
78197;SDS011;67472;51.554;7.812;2023-03-23T16:40:41;3.55;;;2.10;;
78197;SDS011;67472;51.554;7.812;2023-03-23T16:43:27;4.53;;;2.70;;
78197;SDS011;67472;51.554;7.812;2023-03-23T16:46:12;6.78;;;2.90;;
78197;SDS011;67472;51.554;7.812;2023-03-23T16:48:57;3.88;;;2.38;;
78197;SDS011;67472;51.554;7.812;2023-03-23T16:51:42;4.20;;;2.00;;
78197;SDS011;67472;51.554;7.812;2023-03-23T16:54:27;5.50;;;2.80;;
78197;SDS011;67472;51.554;7.812;2023-03-23T16:57:12;3.65;;;2.30;;
78197;SDS011;67472;51.554;7.812;2023-03-23T16:59:57;5.25;;;2.50;;
78197;SDS011;67472;51.554;7.812;2023-03-23T17:02:44;3.83;;;2.50;;
78197;SDS011;67472;51.554;7.812;2023-03-23T17:05:30;4.22;;;2.03;;
78197;SDS011;67472;51.554;7.812;2023-03-23T17:08:15;3.92;;;2.40;;
78197;SDS011;67472;51.554;7.812;2023-03-23T17:11:01;3.50;;;2.65;;
78197;SDS011;67472;51.554;7.812;2023-03-23T17:13:46;6.00;;;2.33;;
78197;SDS011;67472;51.554;7.812;2023-03-23T17:16:31;8.43;;;3.35;;
78197;SDS011;67472;51.554;7.812;2023-03-23T17:19:16;6.38;;;2.05;;
78197;SDS011;67472;51.554;7.812;2023-03-23T17:22:01;7.03;;;2.50;;
78197;SDS011;67472;51.554;7.812;2023-03-23T17:24:47;2.92;;;2.33;;
78197;SDS011;67472;51.554;7.812;2023-03-23T17:27:32;6.00;;;2.63;;
78197;SDS011;67472;51.554;7.812;2023-03-23T17:30:19;5.38;;;1.92;;
78197;SDS011;67472;51.554;7.812;2023-03-23T17:33:04;6.88;;;2.83;;
78197;SDS011;67472;51.554;7.812;2023-03-23T17:35:49;8.18;;;2.53;;
78197;SDS011;67472;51.554;7.812;2023-03-23T17:38:35;5.18;;;2.63;;
78197;SDS011;67472;51.554;7.812;2023-03-23T17:41:20;3.60;;;2.40;;
78197;SDS011;67472;51.554;7.812;2023-03-23T17:44:05;5.25;;;1.95;;
78197;SDS011;67472;51.554;7.812;2023-03-23T17:46:50;3.40;;;2.08;;
78197;SDS011;67472;51.554;7.812;2023-03-23T17:49:35;3.90;;;2.20;;
78197;SDS011;67472;51.554;7.812;2023-03-23T17:52:20;6.47;;;3.22;;
78197;SDS011;67472;51.554;7.812;2023-03-23T17:55:06;4.95;;;2.42;;
78197;SDS011;67472;51.554;7.812;2023-03-23T17:57:51;5.57;;;2.90;;
78197;SDS011;67472;51.554;7.812;2023-03-23T18:00:36;4.03;;;2.65;;
78197;SDS011;67472;51.554;7.812;2023-03-23T18:03:21;6.65;;;2.47;;
78197;SDS011;67472;51.554;7.812;2023-03-23T18:06:07;4.22;;;2.70;;
78197;SDS011;67472;51.554;7.812;2023-03-23T18:08:52;6.65;;;2.85;;
78197;SDS011;67472;51.554;7.812;2023-03-23T18:11:38;5.20;;;2.20;;
78197;SDS011;67472;51.554;7.812;2023-03-23T18:14:23;5.38;;;2.60;;
78197;SDS011;67472;51.554;7.812;2023-03-23T18:17:08;8.27;;;2.22;;
78197;SDS011;67472;51.554;7.812;2023-03-23T18:19:53;7.93;;;2.17;;
78197;SDS011;67472;51.554;7.812;2023-03-23T18:22:39;6.70;;;2.38;;
78197;SDS011;67472;51.554;7.812;2023-03-23T18:25:35;8.20;;;2.45;;
78197;SDS011;67472;51.554;7.812;2023-03-23T18:28:21;7.57;;;2.38;;
78197;SDS011;67472;51.554;7.812;2023-03-23T18:31:07;7.47;;;2.10;;
78197;SDS011;67472;51.554;7.812;2023-03-23T18:33:56;3.72;;;2.10;;
78197;SDS011;67472;51.554;7.812;2023-03-23T18:36:41;7.90;;;2.70;;
78197;SDS011;67472;51.554;7.812;2023-03-23T18:39:26;4.43;;;2.42;;